Parq del Monte, Puerto Rico
Current Conditions -  °F | °C
As of 11:56 AM on Sunday 23 Nov 2014 (Local Time) from TJSJ Reporting Station
Scattered Clouds Scattered Clouds  
Wind Chill: 85°   Ceiling: Unl
Heat Index: 92°   Visibility: 10mi
Dew Point: 74°   Wind: 17mph
Humidity: 69%   Direction: 70°ENE
Pressure: 30.02"   Gusts: 25mph
Location:  18.3569°N, 66.0247°W
Report Text: TJSJ 231556Z 07015G22KT 10SM SCT055 SCT080 29/23 A3002 RMK AO2 SLP166 VCSH SW T02940233 $
Loading
Personal Weather Stations






























Interactive Weather Map New forecast layout! Learn more

10-Day Weather Forecast

Advertisements
Track Severe Weather on mobile